Lorraine — A8IZ3 — position and weather

sailwx.info

Track history (hours):
 
Tides and Currents Weather Stations Pressure Air Temp Water Temp Dewpoint Dewpoint Depression Visibility Wind Speed Wind Dir Waves Ship Positions

Lorraine

Last reported at 2018-May-14 15:04 UTC. Time now 2018-May-22 17:45 UTC.
Position N 23°38' E 118°16'.
Warning: this ship's position is 8 days out of date.

Length 221 m; draft 10.8 m.

Type: Cargo ship. MMSI: 636012905.

Date/timePositionNaut miles runAvg speedWind from/ knotsBaromVisibWave heightAir tempDewpointWater temp
2018-May-14 15:04N 23°38' E 118°16'218.9
2018-May-14 14:57N 23°40' E 118°18'1018.6
2018-May-14 14:24N 23°46' E 118°27'818.4
2018-May-14 13:58N 23°51' E 118°33'918.4
2018-May-14 13:30N 23°57' E 118°40'918.0
2018-May-14 13:00N 24°03' E 118°48'1218.7
2018-May-14 12:22N 24°10' E 118°58'919.0
2018-May-14 11:55N 24°15' E 119°06'  
2018-May-11 16:47N 35°59' E 120°31'1210.8
2018-May-11 15:42N 36°02' E 120°17'3 0.9
2018-May-11 12:13N 36°01' E 120°13'0 0.0
2018-May-11 11:58N 36°01' E 120°13'0 0.0
2018-May-11 11:24N 36°01' E 120°13'0 0.0
2018-May-11 10:57N 36°01' E 120°13'0 0.0
2018-May-11 10:08N 36°01' E 120°13'0 0.0
2018-May-11 09:53N 36°01' E 120°13'0 0.0
2018-May-11 09:25N 36°01' E 120°13'0 0.0
2018-May-11 07:13N 36°01' E 120°13'0 0.0
2018-May-11 06:40N 36°01' E 120°13'0 0.0
2018-May-11 04:58N 36°01' E 120°13'0 0.0
2018-May-11 04:20N 36°01' E 120°13'0 0.0
2018-May-11 03:35N 36°01' E 120°13'0 0.0
2018-May-11 02:49N 36°01' E 120°13'3 2.0
2018-May-11 01:18N 36°02' E 120°17'610.9
2018-May-11 00:48N 36°01' E 120°23'410.5
2018-May-11 00:24N 36°00' E 120°28'17411.1
2018-May-10 08:41N 38°34' E 122°10'18 1.2
2018-May-09 17:20N 38°46' E 121°52'515.4
2018-May-09 16:59N 38°41' E 121°50'817.5
2018-May-09 16:30N 38°34' E 121°46'816.2
2018-May-09 16:00N 38°28' E 121°39'102 2.4
2018-May-07 21:06N 38°46' E 119°30'211.3
2018-May-07 20:57N 38°46' E 119°32'511.3
2018-May-07 20:30N 38°45' E 119°38'611.2
2018-May-07 20:00N 38°44' E 119°45'610.9
2018-May-07 19:29N 38°43' E 119°52'510.6
2018-May-07 19:00N 38°42' E 119°59'510.4
2018-May-07 18:30N 38°41' E 120°05'510.3
2018-May-07 18:00N 38°40' E 120°12'710.1
2018-May-07 17:18N 38°38' E 120°21'510.0
2018-May-07 16:45N 38°38' E 120°27'4810.4
2018-May-07 12:06N 38°22' E 121°26'210.7
2018-May-07 11:57N 38°21' E 121°28'1110.9
2018-May-07 10:59N 38°16' E 121°39'511.1
2018-May-07 10:30N 38°14' E 121°45'810.9
2018-May-07 09:45N 38°10' E 121°54'510.7
2018-May-07 09:17N 38°07' E 121°60'310.7
2018-May-07 09:00N 38°05' E 122°03'510.6
2018-May-07 08:30N 38°03' E 122°09'510.6
2018-May-07 08:00N 38°00' E 122°15'510.6
2018-May-07 07:30N 37°58' E 122°21'510.4
2018-May-07 07:00N 37°55' E 122°26'510.3
2018-May-07 06:30N 37°52' E 122°32'510.4
2018-May-07 06:00N 37°49' E 122°37'510.4
2018-May-07 05:30N 37°47' E 122°43'510.5
2018-May-07 05:00N 37°44' E 122°49'510.6
2018-May-07 04:30N 37°42' E 122°55'510.6
2018-May-07 04:00N 37°38' E 122°60'610.9
2018-May-07 03:27N 37°33' E 123°03'510.6
2018-May-07 03:00N 37°28' E 123°03'70417.4
2018-May-05 10:34N 25°54' E 120°47'220.0
2018-May-05 10:30N 25°53' E 120°46'1520.0
2018-May-05 09:45N 25°40' E 120°39'920.0
2018-May-05 09:18N 25°32' E 120°33'619.9
2018-May-05 09:00N 25°27' E 120°30'1019.6
2018-May-05 08:29N 25°19' E 120°23'7420.0
2018-May-05 04:49N 24°29' E 119°23'619.8
2018-May-05 04:30N 24°25' E 119°18'1019.7
2018-May-05 04:00N 24°19' E 119°10'1019.7
2018-May-05 03:30N 24°13' E 119°01'1619.6
2018-May-05 02:39N 24°02' E 118°48'319.7
2018-May-05 02:30N 24°00' E 118°45'1619.4
2018-May-05 01:42N 23°50' E 118°32'419.2
2018-May-05 01:29N 23°47' E 118°28'919.1
2018-May-05 01:00N 23°42' E 118°21'919.0
2018-May-05 00:30N 23°36' E 118°13'918.6
2018-May-05 00:00N 23°29' E 118°05'918.3
2018-May-04 23:30N 23°23' E 117°57'10617.8
2018-May-04 17:33N 22°30' E 116°18'718.0
2018-May-04 17:10N 22°28' E 116°11'  
Track history (hours):
 
Tides and Currents Weather Stations Pressure Air Temp Water Temp Dewpoint Dewpoint Depression Visibility Wind Speed Wind Dir Waves Ship Positions

Lorraine

Last reported at 2018-May-14 15:04 UTC. Time now 2018-May-22 17:45 UTC.
Position N 23°38' E 118°16'.
Warning: this ship's position is 8 days out of date.

Length 221 m; draft 10.8 m.

Type: Cargo ship. MMSI: 636012905.

Date/timePositionNaut miles runAvg speedWind from/ knotsBaromVisibWave heightAir tempDewpointWater temp
2018-May-14 15:04N 23°38' E 118°16'218.9
2018-May-14 14:57N 23°40' E 118°18'1018.6
2018-May-14 14:24N 23°46' E 118°27'818.4
2018-May-14 13:58N 23°51' E 118°33'918.4
2018-May-14 13:30N 23°57' E 118°40'918.0
2018-May-14 13:00N 24°03' E 118°48'1218.7
2018-May-14 12:22N 24°10' E 118°58'919.0
2018-May-14 11:55N 24°15' E 119°06'  
2018-May-11 16:47N 35°59' E 120°31'1210.8
2018-May-11 15:42N 36°02' E 120°17'3 0.9
2018-May-11 12:13N 36°01' E 120°13'0 0.0
2018-May-11 11:58N 36°01' E 120°13'0 0.0
2018-May-11 11:24N 36°01' E 120°13'0 0.0
2018-May-11 10:57N 36°01' E 120°13'0 0.0
2018-May-11 10:08N 36°01' E 120°13'0 0.0
2018-May-11 09:53N 36°01' E 120°13'0 0.0
2018-May-11 09:25N 36°01' E 120°13'0 0.0
2018-May-11 07:13N 36°01' E 120°13'0 0.0
2018-May-11 06:40N 36°01' E 120°13'0 0.0
2018-May-11 04:58N 36°01' E 120°13'0 0.0
2018-May-11 04:20N 36°01' E 120°13'0 0.0
2018-May-11 03:35N 36°01' E 120°13'0 0.0
2018-May-11 02:49N 36°01' E 120°13'3 2.0
2018-May-11 01:18N 36°02' E 120°17'610.9
2018-May-11 00:48N 36°01' E 120°23'410.5
2018-May-11 00:24N 36°00' E 120°28'17411.1
2018-May-10 08:41N 38°34' E 122°10'18 1.2
2018-May-09 17:20N 38°46' E 121°52'515.4
2018-May-09 16:59N 38°41' E 121°50'817.5
2018-May-09 16:30N 38°34' E 121°46'816.2
2018-May-09 16:00N 38°28' E 121°39'102 2.4
2018-May-07 21:06N 38°46' E 119°30'211.3
2018-May-07 20:57N 38°46' E 119°32'511.3
2018-May-07 20:30N 38°45' E 119°38'611.2
2018-May-07 20:00N 38°44' E 119°45'610.9
2018-May-07 19:29N 38°43' E 119°52'510.6
2018-May-07 19:00N 38°42' E 119°59'510.4
2018-May-07 18:30N 38°41' E 120°05'510.3
2018-May-07 18:00N 38°40' E 120°12'710.1
2018-May-07 17:18N 38°38' E 120°21'510.0
2018-May-07 16:45N 38°38' E 120°27'4810.4
2018-May-07 12:06N 38°22' E 121°26'210.7
2018-May-07 11:57N 38°21' E 121°28'1110.9
2018-May-07 10:59N 38°16' E 121°39'511.1
2018-May-07 10:30N 38°14' E 121°45'810.9
2018-May-07 09:45N 38°10' E 121°54'510.7
2018-May-07 09:17N 38°07' E 121°60'310.7
2018-May-07 09:00N 38°05' E 122°03'510.6
2018-May-07 08:30N 38°03' E 122°09'510.6
2018-May-07 08:00N 38°00' E 122°15'510.6
2018-May-07 07:30N 37°58' E 122°21'510.4
2018-May-07 07:00N 37°55' E 122°26'510.3
2018-May-07 06:30N 37°52' E 122°32'510.4
2018-May-07 06:00N 37°49' E 122°37'510.4
2018-May-07 05:30N 37°47' E 122°43'510.5
2018-May-07 05:00N 37°44' E 122°49'510.6
2018-May-07 04:30N 37°42' E 122°55'510.6
2018-May-07 04:00N 37°38' E 122°60'610.9
2018-May-07 03:27N 37°33' E 123°03'510.6
2018-May-07 03:00N 37°28' E 123°03'70417.4
2018-May-05 10:34N 25°54' E 120°47'220.0
2018-May-05 10:30N 25°53' E 120°46'1520.0
2018-May-05 09:45N 25°40' E 120°39'920.0
2018-May-05 09:18N 25°32' E 120°33'619.9
2018-May-05 09:00N 25°27' E 120°30'1019.6
2018-May-05 08:29N 25°19' E 120°23'7420.0
2018-May-05 04:49N 24°29' E 119°23'619.8
2018-May-05 04:30N 24°25' E 119°18'1019.7
2018-May-05 04:00N 24°19' E 119°10'1019.7
2018-May-05 03:30N 24°13' E 119°01'1619.6
2018-May-05 02:39N 24°02' E 118°48'319.7
2018-May-05 02:30N 24°00' E 118°45'1619.4
2018-May-05 01:42N 23°50' E 118°32'419.2
2018-May-05 01:29N 23°47' E 118°28'919.1
2018-May-05 01:00N 23°42' E 118°21'919.0
2018-May-05 00:30N 23°36' E 118°13'918.6
2018-May-05 00:00N 23°29' E 118°05'918.3
2018-May-04 23:30N 23°23' E 117°57'10617.8
2018-May-04 17:33N 22°30' E 116°18'718.0
2018-May-04 17:10N 22°28' E 116°11'  

Dump ship's entire track history